createdAt,value
2019-01-05T18:06:44.602Z,13.2
2019-01-05T18:08:44.511Z,14.3
2019-01-05T18:10:44.498Z,14.3
2019-01-05T18:12:44.555Z,14.899999999999999
2019-01-05T18:14:44.513Z,14.899999999999999
2019-01-05T18:16:44.611Z,15.399999999999999
2019-01-05T18:18:44.683Z,15.399999999999999
2019-01-05T18:20:44.598Z,15.899999999999999
2019-01-05T18:22:44.761Z,15.899999999999999
2019-01-05T18:24:44.767Z,15.399999999999999
2019-01-05T18:26:44.819Z,16.5
2019-01-05T18:28:44.865Z,16.5
2019-01-05T18:30:44.928Z,15.899999999999999
2019-01-05T18:32:44.995Z,16.5
2019-01-05T18:34:45.096Z,16.5
2019-01-05T18:36:45.149Z,16.5
2019-01-05T18:38:45.166Z,16.5
2019-01-05T18:40:45.214Z,16.5
2019-01-05T18:42:45.371Z,16.5
2019-01-05T18:44:45.501Z,16.5
2019-01-05T18:46:45.507Z,16.5
2019-01-05T18:48:45.572Z,16.5
2019-01-05T18:50:45.638Z,16.5
2019-01-05T18:52:45.890Z,16.5
2019-01-05T18:54:45.852Z,16.5
2019-01-05T18:56:45.758Z,16.5
2019-01-05T18:58:46.000Z,17
2019-01-05T19:00:46.165Z,16.5
2019-01-05T19:02:46.104Z,16.5
2019-01-05T19:04:46.238Z,16.5
2019-01-05T19:06:48.807Z,17
2019-01-05T19:08:46.544Z,16.5
2019-01-05T19:10:46.585Z,16.5
2019-01-05T19:12:46.697Z,16.5
2019-01-05T19:14:46.823Z,16.5
2019-01-05T19:16:46.823Z,16.5
2019-01-05T19:18:46.849Z,16.5
2019-01-05T19:20:46.798Z,16.5
2019-01-05T19:22:46.775Z,17
2019-01-05T19:24:46.929Z,16.5
2019-01-05T19:26:46.901Z,17
2019-01-05T19:28:47.028Z,16.5
2019-01-05T19:30:46.971Z,17.6
2019-01-05T19:32:47.109Z,17
2019-01-05T19:34:47.184Z,17
2019-01-05T19:36:47.247Z,16.5
2019-01-05T19:38:48.404Z,16.5
2019-01-05T19:40:47.366Z,17
2019-01-05T19:42:47.424Z,17
2019-01-05T19:44:47.396Z,16.5
2019-01-05T19:46:47.497Z,17
2019-01-05T19:48:47.613Z,16.5
2019-01-05T19:50:47.641Z,17
2019-01-05T19:52:47.639Z,16.5
2019-01-05T19:54:47.662Z,17
2019-01-05T19:56:47.707Z,16.5
2019-01-05T19:58:47.842Z,17
2019-01-05T20:00:47.924Z,16.5
2019-01-05T20:02:47.944Z,17.6
2019-01-05T20:04:48.004Z,17
2019-01-05T20:06:48.091Z,17.6
2019-01-05T20:08:48.170Z,17
2019-01-05T20:10:48.380Z,17
2019-01-05T20:12:48.322Z,17
2019-01-05T20:14:48.274Z,17
2019-01-05T20:16:48.412Z,17.6
2019-01-05T20:18:48.469Z,17.6
2019-01-05T20:20:48.533Z,17.6
2019-01-05T20:22:48.586Z,16.5
2019-01-05T20:24:48.647Z,17.6
2019-01-05T20:26:48.794Z,17.6
2019-01-05T20:28:48.752Z,17
2019-01-05T20:30:49.086Z,17
2019-01-05T20:32:49.025Z,17.6
2019-01-05T20:34:49.228Z,17.6
2019-01-05T20:36:49.334Z,16.5
2019-01-05T20:38:49.347Z,17
2019-01-05T20:40:49.631Z,16.5
2019-01-05T20:42:49.526Z,16.5
2019-01-05T20:44:49.577Z,17
2019-01-05T20:46:49.624Z,17
2019-01-05T20:48:49.708Z,17.6
2019-01-05T20:50:49.645Z,17
2019-01-05T20:52:49.800Z,16.5
2019-01-05T20:54:49.849Z,16.5
2019-01-05T20:56:49.894Z,17.6
2019-01-05T20:58:49.879Z,17
2019-01-05T21:00:50.011Z,17.6
2019-01-05T21:02:50.068Z,16.5
2019-01-05T21:04:50.055Z,17
2019-01-05T21:06:50.185Z,17
2019-01-05T21:08:51.775Z,17
2019-01-05T21:10:50.255Z,17
2019-01-05T21:12:50.336Z,17.6
2019-01-05T21:14:50.390Z,17.6
2019-01-05T21:16:50.344Z,17.6
2019-01-05T21:18:50.669Z,17.6
2019-01-05T21:20:50.702Z,17
2019-01-05T21:22:50.563Z,18.1
2019-01-05T21:24:50.695Z,17.6
2019-01-05T21:26:50.731Z,17.6
2019-01-05T21:28:50.739Z,18.1
2019-01-05T21:30:50.868Z,17.6
2019-01-05T21:32:50.828Z,17.6
2019-01-05T21:34:50.995Z,17.6
2019-01-05T21:36:51.221Z,17.6
2019-01-05T21:38:51.132Z,18.1
2019-01-05T21:40:51.325Z,17.6
2019-01-05T21:42:51.534Z,17.6
2019-01-05T21:44:51.535Z,17.6
2019-01-05T21:46:51.683Z,18.1
2019-01-05T21:48:51.782Z,17.6
2019-01-05T21:50:51.781Z,18.1
2019-01-05T21:52:51.907Z,17.6
2019-01-05T21:54:52.085Z,17.6
2019-01-05T21:56:52.255Z,17
2019-01-05T21:58:52.269Z,17.6
2019-01-05T22:00:52.304Z,17.6
2019-01-05T22:02:52.359Z,18.1
2019-01-05T22:04:52.407Z,17.6
2019-01-05T22:06:52.470Z,17.6
2019-01-05T22:08:52.525Z,17.6
2019-01-05T22:10:52.654Z,17.6
2019-01-05T22:12:52.762Z,17.6
2019-01-05T22:14:52.686Z,17.6
2019-01-05T22:16:52.867Z,17.6
2019-01-05T22:18:52.932Z,17.6
2019-01-05T22:20:52.975Z,18.1
2019-01-05T22:22:52.953Z,18.1
2019-01-05T22:24:53.067Z,17.6
2019-01-05T22:26:53.115Z,17.6
2019-01-05T22:28:53.071Z,17.6
2019-01-05T22:30:53.212Z,18.1
2019-01-05T22:32:53.174Z,17.6
2019-01-05T22:34:53.327Z,18.1
2019-01-05T22:36:53.375Z,18.1
2019-01-05T22:38:53.425Z,18.1
2019-01-05T22:40:53.653Z,17.6
2019-01-05T22:42:53.554Z,18.1
2019-01-05T22:44:53.908Z,18.1
2019-01-05T22:46:53.872Z,17.6
2019-01-05T22:48:54.250Z,17.6
2019-01-05T22:50:54.034Z,17.6
2019-01-05T22:52:54.000Z,17.6
2019-01-05T22:54:54.166Z,17.6
2019-01-05T22:56:54.253Z,17.6
2019-01-05T22:58:54.211Z,17.6
2019-01-05T23:00:54.468Z,18.1
2019-01-05T23:02:54.557Z,17.6
2019-01-05T23:04:54.700Z,17.6
2019-01-05T23:06:54.751Z,17.6
2019-01-05T23:08:55.014Z,17.6
2019-01-05T23:10:54.957Z,17.6
2019-01-05T23:12:55.028Z,17.6
2019-01-05T23:14:55.045Z,17.6
2019-01-05T23:16:55.067Z,17.6
2019-01-05T23:18:55.112Z,17.6
2019-01-05T23:20:55.056Z,17.6
2019-01-05T23:22:55.217Z,17.6
2019-01-05T23:24:55.254Z,17.6
2019-01-05T23:26:55.231Z,17
2019-01-05T23:28:55.353Z,17.6
2019-01-05T23:30:55.403Z,17.6
2019-01-05T23:32:55.450Z,17.6
2019-01-05T23:34:55.505Z,17.6
2019-01-05T23:36:55.473Z,17
2019-01-05T23:38:55.603Z,17.6
2019-01-05T23:40:55.664Z,17.6
2019-01-05T23:42:55.628Z,17.6
2019-01-05T23:44:55.777Z,17.6
2019-01-05T23:46:55.819Z,17.6
2019-01-05T23:48:55.873Z,18.1
2019-01-05T23:50:55.921Z,17.6
2019-01-05T23:52:56.005Z,17.6
2019-01-05T23:54:56.087Z,17.6
2019-01-05T23:56:56.069Z,17.6
2019-01-05T23:58:56.233Z,17.6
